AirNav   Everest Fuels
 
 404 users online  

SC72 Chandelle Airport
Greer, South Carolina, USA

GOING TO GREER?


FAA INFORMATION EFFECTIVE 03 NOVEMBER 2022

Location

FAA Identifier: SC72
Lat/Long: 34-49-28.1000N 082-08-47.1000W
34-49.468333N 082-08.785000W
34.8244722,-82.1464167
(estimated)
Elevation: 850 ft. / 259 m (estimated)
Variation: 04W (1985)
From city: 10 miles SE of GREER, SC
Time zone: UTC -5 (UTC -4 during Daylight Saving Time)
Zip code: 29651

Airport Operations

Airport use: Private use. Permission required prior to landing
Activation date: 09/1987
Control tower: no
ARTCC: ATLANTA CENTER
FSS: ANDERSON FLIGHT SERVICE STATION
Attendance: TUE-SAT 0800-1700
Wind indicator: yes
Segmented circle: no

Airport Communications

UNICOM: 122.8
WX ASOS at GSP (6 nm NW): 134.25 (864-879-0614)
WX ASOS at GMU (10 nm W): 127.075 (864-239-0014)
WX AWOS-3 at SPA (11 nm NE): 133.925 (864-587-2529)
WX AWOS-3 at GYH (12 nm W): 127.325 (864-277-5674)

Nearby radio navigation aids

VOR radial/distance  VOR name  Freq  Var
SPAr223/16.6SPARTANBURG VORTAC115.7002W
GRDr002/34.4GREENWOOD VORTAC115.5001W
SUGr172/35.4SUGARLOAF MOUNTAIN VORTAC112.2002W
ELWr052/39.8ELECTRIC CITY VORTAC108.6000E

 
NDB name  Hdg/Dist  Freq  Var  ID
JUDKY080/10.452105WGM --. --
UNION COUNTY295/26.232606WUOT ..- --- -
BROAD RIVER156/31.337907WBRA -... .-. .-
FIRST RIVER232/37.241706WSLP ... .-.. .--.
ENOREE328/39.827807WEOE . --- .

Airport Services

Runway Information

Runway 3/21

Dimensions: 3700 x 50 ft. / 1128 x 15 m
Surface: asphalt
Runway edge markings: PAINTED
RUNWAY 3  RUNWAY 21
Traffic pattern: leftleft
Obstructions: 36 ft. pline, marked, 450 ft. from runwaynone

Airport Ownership and Management from official FAA records

Ownership: Privately-owned
Owner: CHANDELLE PROPERTY OWNERS ASSN, INC
140 CHANDELLE RIDGE DRIVE
WOODRUFF, SC 29388
Phone 864-879-3762
Manager: G. LYNN FLEMING
214 VISTA POINTE DRIVE
GREER, SC 29651
Phone 864-640-9801

Airport Operational Statistics

Aircraft based on the field: 23
Single engine airplanes: 18
Helicopters: 1
Gliders airplanes: 1
Ultralights: 3
    

Additional Remarks

FOR CD CTC ATLANTA ARTCC AT 770-210-7692.

Instrument Procedures

There are no published instrument procedures at SC72.

Some nearby airports with instrument procedures:

KGSP - Greenville Spartanburg International Airport (6 nm NW)
KGMU - Greenville Downtown Airport (10 nm W)
KSPA - Spartanburg Downtown Memorial Airport/Simpson Field (11 nm NE)
KGYH - Donaldson Field Airport (12 nm W)
KLUX - Laurens County Airport (21 nm SE)
 
Loc | Ops | Rwys | IFR | FBO | Links
Com | Nav | Svcs | Stats | Notes
Area around SC72 (Chandelle Airport)
 
Road maps at: MapQuest Bing Google
 
Aerial photo
No photo
 
Sectional chart

 
Airport distance calculator
Flying to Chandelle Airport? Find the distance to fly.

From to SC72

Sunrise and sunset
Times for 29-Nov-2022
 Local
(UTC-5)
 Zulu
(UTC)
Morning civil twilight06:4911:49
Sunrise07:1712:17
Sunset17:1722:17
Evening civil twilight17:4422:44

Current date and time
Zulu (UTC)  29-Nov-2022 07:30:32
Local (UTC-5)  29-Nov-2022 02:30:32
 
METAR
KGSP 
6nm NW 
290653Z 02004KT 10SM CLR 06/03 A3011 RMK AO2 SLP193 T00560028
KGMU 
10nm W 
290653Z AUTO 02008KT 10SM CLR 09/04 A3011 RMK AO2 SLP193 T00890039
KGYH 
12nm W 
290715Z AUTO 06006KT 10SM CLR 08/04 A3011 RMK A02 T00780042
KSPA 
16nm NE 
290715Z AUTO 05003KT 10SM CLR 07/03 A3011 RMK AO2
TAF
KGSP 
6nm NW 
290525Z 2906/3006 04005KT P6SM SKC FM291300 05004KT P6SM SKC FM291600 09005KT P6SM SKC FM292200 13004KT P6SM FEW250 FM292300 10003KT P6SM SCT080 BKN250 PROB30 3004/3006 4SM -SHRA BR BKN250
KGMU 
10nm W 
290525Z 2906/3006 04006KT P6SM SKC FM291400 06006KT P6SM SKC FM291800 14005KT P6SM SKC FM292300 09004KT P6SM SCT080 BKN250 PROB30 3004/3006 4SM -SHRA BR OVC025
NOTAMs
Click for the latest NOTAMs
NOTAMs are issued by the DoD/FAA and will open in a separate window not controlled by AirNav.

 

 
 

Would you like to see your business listed on this page?

 If your business provides an interesting product or service to pilots, flight crews, aircraft, or users of the Chandelle Airport, you should consider listing it here.  To start the listing process, click on the button below
 
Add a business
 

Other Pages about Chandelle Airport

Update a link
 
Copyright © AirNav, LLC. All rights reserved. Privacy Policy  Contact